Time;durP1;ratioP1;P1;durP2;ratioP2;P2;SDS_P1;SDS_P2;PMS_P1;PMS_P2;Temp;Humidity;BMP_temperature;BMP_pressure;BME280_temperature;BME280_humidity;BME280_pressure;Samples;Min_cycle;Max_cycle;Signal;HPM_P1;HPM_P2
2024/03/26 00:00:39;;;;;;;6.75;3.33;;;2.30;99.90;;;-144.05;56.26;57073.97;5085691;28;20020;-79
2024/03/26 00:03:05;;;;;;;9.77;3.22;;;1.80;99.90;;;-144.05;56.47;57008.13;5090063;28;20024;-81
2024/03/26 00:05:31;;;;;;;9.93;3.35;;;2.00;99.90;;;-144.05;56.80;57023.00;5068107;28;20077;-78
2024/03/26 00:07:57;;;;;;;13.57;3.65;;;2.20;99.90;;;-144.05;56.69;57025.13;5088512;28;20485;-78
2024/03/26 00:10:23;;;;;;;10.00;3.25;;;5.70;99.90;;;-144.05;56.97;57031.50;5068525;28;20473;-80
2024/03/26 00:12:50;;;;;;;10.95;3.83;;;1.80;99.90;;;-144.05;56.98;57025.13;5083775;28;20031;-80
2024/03/26 00:15:16;;;;;;;12.00;3.90;;;1.70;99.90;;;-144.05;57.27;57040.00;5092239;28;20044;-81
2024/03/26 00:17:42;;;;;;;10.05;3.45;;;5.70;99.90;;;-144.05;57.16;57023.00;5087920;28;20039;-81
2024/03/26 00:20:09;;;;;;;10.10;3.53;;;1.90;99.90;;;-144.05;56.90;57029.38;5106298;28;20036;-79
2024/03/26 00:22:35;;;;;;;9.32;3.55;;;1.70;99.90;;;-144.05;57.22;57029.38;5082617;28;20036;-80
2024/03/26 00:25:00;;;;;;;12.00;3.70;;;1.80;99.90;;;-144.05;57.37;57033.63;5075059;28;20525;-80
2024/03/26 00:27:26;;;;;;;12.82;3.85;;;5.80;99.90;;;-144.05;58.12;57016.63;5091017;28;20086;-80
2024/03/26 00:29:52;;;;;;;11.85;3.53;;;5.70;99.90;;;-144.05;57.90;57029.38;5085777;28;20508;-79
2024/03/26 00:32:18;;;;;;;7.55;3.40;;;1.70;99.90;;;-144.05;58.17;57010.25;5088936;28;20031;-79
2024/03/26 00:34:43;;;;;;;11.20;3.90;;;1.50;99.90;;;-144.05;58.44;57031.50;5066759;28;20062;-80
2024/03/26 00:37:09;;;;;;;10.30;3.88;;;1.60;99.90;;;-144.05;59.19;57014.50;5085236;28;20111;-80
2024/03/26 00:39:35;;;;;;;12.20;3.90;;;1.40;99.90;;;-144.05;58.99;57035.75;5084780;28;20559;-79
2024/03/26 00:42:01;;;;;;;12.30;3.60;;;1.20;99.90;;;-144.05;59.11;57031.50;5069194;28;20043;-78
2024/03/26 00:44:27;;;;;;;10.70;3.72;;;;;;;-144.05;58.85;57050.63;5061729;28;20193;-81
2024/03/26 00:46:53;;;;;;;12.75;4.15;;;2.00;99.90;;;-144.05;59.34;57012.38;5056192;28;20440;-77
2024/03/26 00:49:19;;;;;;;10.90;4.95;;;;;;;-144.05;58.96;56999.63;5091852;28;20020;-79
2024/03/26 00:51:45;;;;;;;8.25;3.55;;;;;;;-144.05;59.38;57014.50;5071387;28;20493;-78
2024/03/26 00:54:12;;;;;;;8.52;3.35;;;1.90;99.90;;;-144.05;59.12;57027.25;5060618;28;20116;-80
2024/03/26 00:56:37;;;;;;;12.63;4.22;;;1.60;99.90;;;-144.05;59.09;57048.50;5066334;28;20028;-79
2024/03/26 00:59:03;;;;;;;9.75;3.47;;;0.90;99.90;;;-144.05;59.09;57029.38;5051741;28;20032;-78
2024/03/26 01:01:29;;;;;;;9.13;3.58;;;2.20;99.90;;;-144.05;59.46;57020.88;5095881;28;20028;-79
2024/03/26 01:03:55;;;;;;;11.90;3.50;;;;;;;-144.05;58.99;56972.03;5088190;28;20086;-79
2024/03/26 01:06:21;;;;;;;10.02;4.00;;;2.30;99.90;;;-144.05;59.11;56993.25;5087264;28;20135;-78
2024/03/26 01:08:47;;;;;;;9.20;3.38;;;1.60;99.90;;;-144.05;58.95;57052.75;5084077;28;20032;-77
2024/03/26 01:11:13;;;;;;;11.80;4.05;;;1.90;99.90;;;-144.05;59.27;57033.63;5070111;28;20599;-79
2024/03/26 01:13:40;;;;;;;7.20;3.10;;;1.60;99.90;;;-144.05;59.33;57010.25;5079605;28;20032;-78
2024/03/26 01:16:06;;;;;;;9.02;3.63;;;5.40;99.90;;;-144.05;59.02;57042.13;5090422;28;20024;-76
2024/03/26 01:18:32;;;;;;;10.52;3.90;;;1.30;99.90;;;-144.05;58.97;57033.63;5090533;28;20035;-78
2024/03/26 01:20:58;;;;;;;8.95;3.40;;;1.70;99.90;;;-144.05;58.42;57044.25;5070939;28;20028;-77
2024/03/26 01:23:25;;;;;;;6.95;2.97;;;;;;;-144.05;57.76;57040.00;5091605;28;20443;-79
2024/03/26 01:25:50;;;;;;;8.80;2.83;;;1.80;99.90;;;-144.05;57.28;57006.00;5083238;28;20051;-79
2024/03/26 01:28:17;;;;;;;8.55;3.13;;;;;;;-144.05;56.96;57010.25;5080127;28;20056;-80
2024/03/26 01:30:42;;;;;;;9.98;3.33;;;2.10;99.90;;;-144.05;56.74;57031.50;5084196;28;20027;-81
2024/03/26 01:33:08;;;;;;;6.80;3.35;;;1.70;99.90;;;-144.05;56.78;57031.50;5089714;28;20036;-78
2024/03/26 01:35:34;;;;;;;5.53;2.83;;;2.20;99.90;;;-144.05;55.95;57040.00;5071649;28;20111;-78
2024/03/26 01:38:00;;;;;;;7.40;2.35;;;2.00;99.90;;;-144.05;55.47;57001.75;5088250;28;20041;-79
2024/03/26 01:40:26;;;;;;;5.78;3.20;;;2.10;99.90;;;-144.05;55.49;57018.75;5070854;28;20028;-79
2024/03/26 01:42:52;;;;;;;7.20;2.97;;;2.00;99.90;;;-144.05;55.03;57029.38;5079154;28;20457;-78
2024/03/26 01:45:18;;;;;;;6.85;2.42;;;2.20;99.90;;;-144.05;54.50;57033.63;5068486;28;20120;-78
2024/03/26 01:47:45;;;;;;;6.18;2.50;;;5.30;99.90;;;-144.05;54.29;57048.50;5085413;28;20485;-80
2024/03/26 01:50:16;;;;;;;5.97;2.38;;;2.40;99.90;;;-144.05;53.96;57023.00;5090714;28;20032;-79
2024/03/26 01:52:44;;;;;;;10.90;2.75;;;1.90;99.90;;;-144.05;53.83;57035.75;5070218;28;20032;-80
2024/03/26 01:55:13;;;;;;;8.93;2.88;;;2.50;99.90;;;-144.05;53.83;56999.63;5071896;28;20675;-79
2024/03/26 01:57:40;;;;;;;9.57;3.45;;;2.40;99.90;;;-144.05;53.84;57042.13;5071373;28;20024;-80
2024/03/26 02:00:07;;;;;;;10.10;2.85;;;2.20;99.90;;;-144.05;54.30;57023.00;5089222;28;20033;-78
2024/03/26 02:02:33;;;;;;;8.98;2.95;;;2.20;99.90;;;-144.05;54.19;57012.38;5075680;28;20039;-78
2024/03/26 02:04:59;;;;;;;12.15;3.13;;;2.30;99.90;;;-144.05;53.97;57010.25;5087003;28;20024;-80
2024/03/26 02:07:25;;;;;;;7.05;2.88;;;1.90;99.90;;;-144.05;54.17;57014.50;5071336;28;20028;-76
2024/03/26 02:09:52;;;;;;;5.75;2.30;;;2.00;99.90;;;-144.05;54.83;57020.88;5086939;28;20037;-79
2024/03/26 02:12:18;;;;;;;8.45;3.13;;;1.60;99.90;;;-144.05;54.45;57012.38;5071675;28;20055;-79
2024/03/26 02:14:44;;;;;;;10.57;2.95;;;1.70;99.90;;;-144.05;54.90;57046.38;5087726;28;20052;-78
2024/03/26 02:17:10;;;;;;;7.57;3.05;;;1.80;99.90;;;-144.05;55.21;57020.88;5088353;28;20069;-77
2024/03/26 02:19:36;;;;;;;7.13;3.15;;;2.00;99.90;;;-144.05;55.63;57029.38;5089265;28;20389;-79
2024/03/26 02:22:02;;;;;;;6.75;2.50;;;1.60;99.90;;;-144.05;55.93;56993.25;5086739;28;20037;-79
2024/03/26 02:24:32;;;;;;;6.82;3.03;;;5.10;99.90;;;-144.05;55.74;57031.50;5054082;28;20111;-77
2024/03/26 02:26:59;;;;;;;5.35;2.67;;;1.40;99.90;;;-144.05;55.86;57001.75;5064940;28;20025;-79
2024/03/26 02:29:25;;;;;;;7.20;2.85;;;1.90;99.90;;;-144.05;55.89;57033.63;5089305;28;20024;-78
2024/03/26 02:31:51;;;;;;;8.15;2.42;;;5.60;99.90;;;-144.05;55.76;57014.50;5068334;28;20081;-78
2024/03/26 02:34:16;;;;;;;8.50;3.15;;;1.50;99.90;;;-144.05;55.90;57010.25;5071046;28;20016;-78
2024/03/26 02:36:42;;;;;;;6.45;3.05;;;1.90;99.90;;;-144.05;55.90;57046.38;5089068;28;20473;-79
2024/03/26 02:39:09;;;;;;;3.90;2.40;;;;;;;-144.05;56.11;57025.13;5071010;28;20040;-78
2024/03/26 02:41:36;;;;;;;9.38;2.72;;;2.00;99.90;;;-144.05;55.96;57044.25;5072266;28;20032;-78
2024/03/26 02:44:04;;;;;;;7.40;2.72;;;1.90;99.90;;;-144.05;56.09;57031.50;5088192;28;20490;-80
2024/03/26 02:46:30;;;;;;;9.48;3.00;;;5.10;99.90;;;-144.05;56.35;57040.00;5091444;28;20485;-79
2024/03/26 02:48:58;;;;;;;7.20;2.67;;;;;;;-144.05;56.46;57029.38;5088217;28;20021;-78
2024/03/26 02:51:23;;;;;;;8.07;3.25;;;1.90;99.90;;;-144.05;56.25;57040.00;5086129;28;20024;-76
2024/03/26 02:53:50;;;;;;;8.90;2.90;;;;;;;-144.05;56.53;57006.00;5086389;28;20035;-78
2024/03/26 02:56:16;;;;;;;8.50;4.00;;;1.60;99.90;;;-144.05;56.84;57031.50;5065996;28;20072;-79
2024/03/26 02:58:42;;;;;;;9.25;3.40;;;1.70;99.90;;;-144.05;56.93;57027.25;5087192;28;20085;-78
2024/03/26 03:01:14;;;;;;;8.55;2.92;;;1.50;99.90;;;-144.05;58.31;57029.38;5086570;28;20021;-79
2024/03/26 03:03:40;;;;;;;10.63;3.38;;;;;;;-144.05;57.79;57018.75;5073477;28;20032;-78
2024/03/26 03:06:08;;;;;;;9.27;3.35;;;1.30;99.90;;;-144.05;57.80;57027.25;5081310;28;20027;-78
2024/03/26 03:08:36;;;;;;;7.45;3.08;;;1.60;99.90;;;-144.05;58.08;57031.50;5080069;28;20024;-78
2024/03/26 03:11:03;;;;;;;10.65;2.88;;;;;;;-144.05;58.47;57027.25;5097271;28;20025;-79
2024/03/26 03:13:29;;;;;;;6.82;3.20;;;1.80;99.90;;;-144.05;58.54;57046.38;5083853;28;20512;-80
2024/03/26 03:15:55;;;;;;;9.38;3.33;;;4.70;99.90;;;-144.05;58.12;57029.38;5086807;28;20032;-79
2024/03/26 03:18:21;;;;;;;6.22;3.38;;;1.60;99.90;;;-144.05;58.49;57031.50;5089365;28;20035;-78
2024/03/26 03:20:47;;;;;;;8.13;3.45;;;1.20;99.90;;;-144.05;58.78;57033.63;5086389;28;20434;-78
2024/03/26 03:23:13;;;;;;;7.85;3.50;;;1.30;99.90;;;-144.05;59.30;57044.25;5082932;28;20081;-78
2024/03/26 03:25:41;;;;;;;7.50;4.05;;;5.50;99.90;;;-144.05;59.34;57059.09;5080184;28;20051;-78
2024/03/26 03:28:07;;;;;;;5.72;3.13;;;1.10;99.90;;;-144.05;59.63;57018.75;5067320;28;20207;-78
2024/03/26 03:30:34;;;;;;;7.35;3.13;;;1.50;99.90;;;-144.05;59.38;57029.38;5068524;28;20081;-77
2024/03/26 03:33:00;;;;;;;7.85;3.67;;;1.40;99.90;;;-144.05;59.75;57033.63;5083983;28;20094;-77
2024/03/26 03:35:26;;;;;;;10.13;3.35;;;5.50;99.90;;;-144.05;59.70;57042.13;5068966;28;20020;-78
2024/03/26 03:37:52;;;;;;;5.55;3.15;;;1.40;99.90;;;-144.05;59.95;57023.00;5083706;28;20370;-78
2024/03/26 03:40:18;;;;;;;8.25;3.47;;;1.40;99.90;;;-144.05;59.80;57044.25;5054229;28;20175;-77
2024/03/26 03:42:44;;;;;;;7.93;2.65;;;1.60;99.90;;;-144.05;60.19;57001.75;5077616;28;20024;-78
2024/03/26 03:45:11;;;;;;;9.65;3.50;;;1.40;99.90;;;-144.05;60.09;57035.75;5084837;28;20119;-78
2024/03/26 03:47:37;;;;;;;8.30;3.63;;;1.20;99.90;;;-144.05;60.25;57025.13;5068855;28;20085;-79
2024/03/26 03:50:04;;;;;;;11.50;3.22;;;1.30;99.90;;;-144.05;60.33;57020.88;5085364;28;20029;-77
2024/03/26 03:52:30;;;;;;;9.00;3.47;;;1.40;99.90;;;-144.05;60.62;57003.88;5081312;28;20362;-76
2024/03/26 03:54:56;;;;;;;9.32;3.80;;;;;;;-144.05;60.36;57031.50;5083501;28;20035;-78
2024/03/26 03:57:24;;;;;;;9.52;3.47;;;1.50;99.90;;;-144.05;60.65;57027.25;5085684;28;20047;-77
2024/03/26 03:59:50;;;;;;;8.35;3.55;;;1.40;99.90;;;-144.05;60.74;57014.50;5065122;28;20016;-78
2024/03/26 04:02:15;;;;;;;7.05;3.80;;;1.70;99.90;;;-144.05;60.23;57020.88;5085680;28;20069;-76
2024/03/26 04:04:41;;;;;;;9.25;3.65;;;1.30;99.90;;;-144.05;60.32;57006.00;5082542;28;20024;-79
2024/03/26 04:07:07;;;;;;;9.50;3.38;;;1.10;99.90;;;-144.05;60.60;57025.13;5081466;28;20035;-77
2024/03/26 04:09:33;;;;;;;7.15;3.05;;;;;;;-144.05;60.94;57044.25;5077904;28;20023;-77
2024/03/26 04:11:59;;;;;;;5.63;2.85;;;1.30;99.90;;;-144.05;60.97;57025.13;5075893;28;20146;-76
2024/03/26 04:14:25;;;;;;;9.98;3.83;;;;;;;-144.05;60.86;56997.50;5084733;28;20513;-79
2024/03/26 04:16:51;;;;;;;5.70;3.50;;;1.40;99.90;;;-144.05;60.84;57042.13;5081203;28;20504;-79
2024/03/26 04:19:17;;;;;;;9.40;3.20;;;1.60;99.90;;;-144.05;60.69;57027.25;5083453;28;20035;-78
2024/03/26 04:21:42;;;;;;;7.07;3.38;;;1.60;99.90;;;-144.05;61.42;57035.75;5082335;28;20127;-79
2024/03/26 04:24:08;;;;;;;8.02;5.10;;;1.60;99.90;;;-144.05;61.18;57040.00;5085627;28;20406;-77
2024/03/26 04:26:35;;;;;;;20.48;9.90;;;1.30;99.90;;;-144.05;61.77;57033.63;5087273;28;20028;-76
2024/03/26 04:29:01;;;;;;;13.88;6.10;;;1.60;99.90;;;-144.05;61.31;57027.25;5086379;28;20055;-78
2024/03/26 04:31:27;;;;;;;11.02;3.72;;;0.80;99.90;;;-144.05;61.60;57014.50;5067394;28;20044;-79
2024/03/26 04:33:53;;;;;;;7.68;5.05;;;1.60;99.90;;;-144.05;61.85;57052.75;5081708;28;20086;-75
2024/03/26 04:36:19;;;;;;;12.77;5.88;;;;;;;-144.05;61.64;57023.00;5085595;28;20070;-79
2024/03/26 04:38:45;;;;;;;8.63;4.28;;;1.10;99.90;;;-144.05;62.10;57029.38;5058107;28;20024;-80
2024/03/26 04:41:11;;;;;;;10.35;3.80;;;0.80;99.90;;;-144.05;62.08;57012.38;5069709;28;20029;-79
2024/03/26 04:43:37;;;;;;;8.25;3.58;;;1.70;99.90;;;-144.05;62.76;57018.75;5065975;28;20118;-79
2024/03/26 04:46:03;;;;;;;8.32;3.90;;;1.30;99.90;;;-144.05;62.82;57052.75;5086535;28;20042;-78
2024/03/26 04:48:29;;;;;;;6.18;3.38;;;0.90;99.90;;;-144.05;62.83;57023.00;5070546;28;20077;-78
2024/03/26 04:50:56;;;;;;;55.72;23.92;;;;;;;-144.05;62.71;57018.75;5085406;28;20469;-80
2024/03/26 04:53:21;;;;;;;16.73;6.05;;;1.10;99.90;;;-144.05;62.87;57027.25;5078561;28;20103;-79
2024/03/26 04:55:49;;;;;;;9.45;3.95;;;1.00;99.90;;;-144.05;63.20;57040.00;5086829;28;20475;-76
2024/03/26 04:58:15;;;;;;;8.77;4.30;;;1.30;99.90;;;-144.05;63.26;57035.75;5087812;28;20021;-79
2024/03/26 05:00:41;;;;;;;8.25;4.25;;;4.80;99.90;;;-144.05;63.17;57042.13;5081546;28;20031;-78
2024/03/26 05:03:08;;;;;;;8.68;4.13;;;0.90;99.90;;;-144.05;62.95;57031.50;5085758;28;20105;-77
2024/03/26 05:05:34;;;;;;;8.50;3.55;;;1.30;99.90;;;-144.05;63.13;57023.00;5082970;28;20540;-76
2024/03/26 05:08:00;;;;;;;8.00;4.00;;;;;;;-144.05;62.66;57006.00;5084988;28;20033;-78
2024/03/26 05:10:26;;;;;;;10.15;3.45;;;2.00;99.90;;;-144.05;62.87;57027.25;5083390;28;20085;-78
2024/03/26 05:12:52;;;;;;;13.15;3.83;;;1.30;99.90;;;-144.05;63.23;57029.38;5085475;28;20032;-78
2024/03/26 05:15:17;;;;;;;7.10;3.13;;;1.20;99.90;;;-144.05;62.81;57035.75;5069199;28;20038;-78
2024/03/26 05:17:44;;;;;;;8.07;3.90;;;;;;;-144.05;62.99;57031.50;5086199;28;20021;-80
2024/03/26 05:20:10;;;;;;;7.18;3.58;;;1.10;99.90;;;-144.05;62.89;57006.00;5070819;28;20493;-80
2024/03/26 05:22:36;;;;;;;9.07;3.95;;;1.30;99.90;;;-144.05;63.09;57046.38;5082360;28;20465;-77
2024/03/26 05:25:03;;;;;;;10.23;3.97;;;1.00;99.90;;;-144.05;63.45;57048.50;5075880;28;20031;-78
2024/03/26 05:27:29;;;;;;;6.03;3.80;;;0.80;99.90;;;-144.05;63.52;57018.75;5094253;28;20049;-80
2024/03/26 05:29:55;;;;;;;6.72;3.38;;;;;;;-144.05;62.98;57018.75;5067705;28;20021;-79
2024/03/26 05:32:21;;;;;;;6.25;3.45;;;4.90;99.90;;;-144.05;63.04;57044.25;5087008;28;20099;-77
2024/03/26 05:34:49;;;;;;;10.73;3.80;;;4.80;99.90;;;-144.05;63.63;57044.25;5067299;28;20037;-79
2024/03/26 05:37:16;;;;;;;7.70;3.60;;;1.20;99.90;;;-144.05;64.02;57044.25;5063636;28;20378;-77
2024/03/26 05:39:43;;;;;;;10.02;3.63;;;1.00;99.90;;;-144.05;64.26;57031.50;5085958;28;20026;-77
2024/03/26 05:42:10;;;;;;;10.05;4.35;;;1.10;99.90;;;-144.05;64.36;57040.00;5084044;28;20493;-78
2024/03/26 05:44:36;;;;;;;10.93;4.47;;;0.60;99.90;;;-144.05;64.53;57029.38;5069268;28;20447;-77
2024/03/26 05:47:02;;;;;;;7.75;3.63;;;5.00;99.90;;;-144.05;64.65;57023.00;5065851;28;20146;-77
2024/03/26 05:49:28;;;;;;;7.10;3.83;;;1.40;99.90;;;-144.05;64.38;57006.00;5065502;28;20020;-79
2024/03/26 05:51:54;;;;;;;10.00;4.10;;;0.90;99.90;;;-144.05;64.79;57042.13;5065299;28;20044;-76
2024/03/26 05:54:20;;;;;;;5.78;3.33;;;1.00;99.90;;;-144.05;64.54;57029.38;5082555;28;20063;-78
2024/03/26 05:56:45;;;;;;;7.97;3.30;;;1.10;99.90;;;-144.05;64.54;57031.50;5085109;28;20062;-78
2024/03/26 05:59:11;;;;;;;9.48;4.55;;;1.00;99.90;;;-144.05;64.84;57031.50;5066906;28;20496;-78
2024/03/26 06:01:37;;;;;;;8.40;4.20;;;5.00;99.90;;;-144.05;64.64;57031.50;5068118;28;20020;-79
2024/03/26 06:04:04;;;;;;;10.93;3.40;;;;;;;-144.05;64.98;57014.50;5084571;28;20024;-79
2024/03/26 06:06:29;;;;;;;11.23;3.80;;;0.70;99.90;;;-144.05;64.61;57033.63;5086566;28;20043;-77
2024/03/26 06:08:55;;;;;;;10.13;4.50;;;5.00;99.90;;;-144.05;64.53;57029.38;5064472;28;20021;-78
2024/03/26 06:11:21;;;;;;;10.35;4.45;;;5.00;99.90;;;-144.05;64.18;56989.00;5067467;28;20020;-78
2024/03/26 06:13:47;;;;;;;8.20;4.25;;;1.00;99.90;;;-144.05;64.19;57054.88;5083768;28;20024;-78
2024/03/26 06:16:14;;;;;;;7.53;3.88;;;1.00;99.90;;;-144.05;64.00;57031.50;5083630;28;20024;-78
2024/03/26 06:18:40;;;;;;;7.25;3.88;;;1.40;99.90;;;-144.05;64.01;57023.00;5080363;28;20408;-78
2024/03/26 06:21:06;;;;;;;7.45;4.15;;;;;;;-144.05;63.92;57018.75;5082381;28;20032;-78
2024/03/26 06:23:33;;;;;;;7.78;4.10;;;1.10;99.90;;;-144.05;63.97;57016.63;5085673;28;20345;-79
2024/03/26 06:25:59;;;;;;;13.82;4.78;;;1.30;99.90;;;-144.05;64.04;56997.50;5079583;28;20498;-79
2024/03/26 06:28:25;;;;;;;11.35;3.92;;;4.50;99.90;;;-144.05;64.14;57023.00;5071344;28;20484;-77
2024/03/26 06:30:52;;;;;;;8.85;4.30;;;1.60;99.90;;;-144.05;63.94;57003.88;5085138;28;20063;-76
2024/03/26 06:33:18;;;;;;;8.57;3.88;;;1.70;99.90;;;-144.05;63.69;57010.25;5083023;28;20485;-77
2024/03/26 06:35:44;;;;;;;13.18;4.20;;;1.40;99.90;;;-144.05;63.31;57018.75;5077915;28;20024;-78
2024/03/26 06:38:10;;;;;;;8.20;4.63;;;1.00;99.90;;;-144.05;62.75;57012.38;5086110;28;20394;-76
2024/03/26 06:40:37;;;;;;;7.60;3.50;;;2.00;99.90;;;-144.05;62.78;57008.13;5089483;28;20165;-79
2024/03/26 06:43:07;;;;;;;8.60;3.80;;;2.00;99.90;;;-144.05;61.98;57020.88;5069665;28;20024;-79
2024/03/26 06:45:33;;;;;;;14.18;4.15;;;2.00;99.90;;;-144.05;61.87;56995.38;5094937;28;20105;-78
2024/03/26 06:48:00;;;;;;;8.77;4.40;;;2.10;99.90;;;-144.05;61.74;57001.75;5087087;28;20025;-77
2024/03/26 06:50:26;;;;;;;10.80;4.43;;;2.10;99.90;;;-144.05;61.38;56991.13;5089470;28;20023;-78
2024/03/26 06:52:52;;;;;;;6.30;3.80;;;2.70;99.90;;;-144.05;60.69;56995.38;5076816;28;20040;-79
2024/03/26 06:55:22;;;;;;;7.30;4.18;;;2.00;99.90;;;-144.05;59.76;56995.38;5087965;28;20545;-76
2024/03/26 06:57:48;;;;;;;8.50;3.90;;;2.60;99.90;;;-144.05;59.05;57014.50;5078951;28;20088;-78
2024/03/26 07:00:15;;;;;;;9.98;3.92;;;3.30;99.90;;;-144.05;58.82;56959.28;5088718;28;20035;-78
2024/03/26 07:02:42;;;;;;;6.38;3.88;;;2.90;99.90;;;-144.05;58.80;56967.78;5074494;28;20030;-78
2024/03/26 07:05:11;;;;;;;7.75;4.13;;;4.40;99.90;;;-144.05;58.85;56965.66;5086509;28;20050;-79
2024/03/26 07:07:39;;;;;;;8.10;4.05;;;3.20;99.90;;;-144.05;58.14;57016.63;5088173;28;20542;-77
2024/03/26 07:10:06;;;;;;;6.75;4.20;;;3.70;99.90;;;-144.05;57.76;56978.41;5094033;28;20032;-79
2024/03/26 07:12:34;;;;;;;7.80;3.85;;;4.50;99.90;;;-144.05;57.82;57023.00;5103869;28;20023;-77
2024/03/26 07:15:00;;;;;;;7.95;3.63;;;4.30;99.90;;;-144.05;57.10;56980.53;5095523;28;20020;-80
2024/03/26 07:17:26;;;;;;;6.78;3.67;;;;;;;-144.05;56.49;57006.00;5076074;28;20028;-76
2024/03/26 07:19:53;;;;;;;10.75;3.85;;;4.40;99.90;;;-144.05;55.71;56984.78;5079615;28;20029;-77
2024/03/26 07:22:19;;;;;;;5.70;3.47;;;4.40;99.90;;;-144.05;55.55;56986.91;5086198;28;20378;-75
2024/03/26 07:24:44;;;;;;;5.72;3.30;;;7.00;99.90;;;-144.05;55.24;57010.25;5059728;28;20024;-76
2024/03/26 07:27:11;;;;;;;7.75;3.50;;;;;;;-144.05;54.70;56984.78;5063842;28;20032;-77
2024/03/26 07:29:41;;;;;;;6.53;3.53;;;8.20;99.90;;;-144.05;53.33;56986.91;5066011;28;20034;-76
2024/03/26 07:32:08;;;;;;;10.35;3.78;;;6.00;99.90;;;-144.05;52.57;56986.91;5087094;28;20047;-77
2024/03/26 07:34:37;;;;;;;8.48;3.20;;;7.40;99.90;;;-144.05;52.58;56980.53;5089351;28;20082;-79
2024/03/26 07:37:03;;;;;;;7.63;3.60;;;4.80;99.90;;;-144.05;52.10;56963.53;5085990;28;20043;-77
2024/03/26 07:39:29;;;;;;;7.40;3.67;;;7.20;99.90;;;-144.05;51.67;56965.66;5088427;28;20473;-76
2024/03/26 07:41:57;;;;;;;7.65;3.40;;;7.00;99.90;;;-144.05;51.66;56999.63;5079917;28;20025;-75
2024/03/26 07:44:23;;;;;;;9.20;3.50;;;7.30;99.90;;;-144.05;51.56;56976.28;5084793;28;20025;-74
2024/03/26 07:46:49;;;;;;;10.25;3.63;;;;;;;-144.05;51.04;56965.66;5065045;28;20027;-78
2024/03/26 07:49:15;;;;;;;8.02;3.95;;;7.20;99.90;;;-144.05;50.75;56967.78;5083392;28;20084;-77
2024/03/26 07:51:41;;;;;;;6.68;2.97;;;8.90;99.90;;;-144.05;51.00;56978.41;5079896;28;20442;-76
2024/03/26 07:54:07;;;;;;;9.30;3.55;;;;;;;-144.05;51.33;56974.16;5082100;28;20029;-77
2024/03/26 07:56:33;;;;;;;6.53;3.70;;;7.90;99.90;;;-144.05;50.80;56965.66;5069027;28;20078;-76
2024/03/26 07:59:00;;;;;;;11.82;4.57;;;9.10;99.90;;;-144.05;51.06;57008.13;5081110;28;20043;-78
2024/03/26 08:01:26;;;;;;;10.35;3.97;;;8.00;99.90;;;-144.05;51.56;56974.16;5088734;28;20513;-76
2024/03/26 08:03:53;;;;;;;9.70;3.78;;;7.70;99.90;;;-144.05;51.54;56999.63;5085439;28;20710;-78
2024/03/26 08:06:19;;;;;;;8.07;4.45;;;8.20;99.90;;;-144.05;51.74;56948.66;5082754;28;20037;-76
2024/03/26 08:08:52;;;;;;;8.85;4.03;;;7.50;99.90;;;-144.05;52.24;56963.53;5089449;28;20103;-77
2024/03/26 08:11:18;;;;;;;11.20;4.18;;;7.80;99.90;;;-144.05;52.03;56959.28;5063259;28;20040;-76
2024/03/26 08:13:44;;;;;;;8.63;4.15;;;7.90;99.90;;;-144.05;51.82;56976.28;5076966;28;20044;-79
2024/03/26 08:16:09;;;;;;;12.23;4.10;;;8.00;99.90;;;-144.05;51.53;56946.53;5071087;28;20485;-81
2024/03/26 08:18:35;;;;;;;7.93;3.22;;;7.60;99.90;;;-144.05;51.66;56963.53;5069377;28;20035;-79
2024/03/26 08:21:01;;;;;;;5.65;3.50;;;7.20;99.90;;;-144.05;52.17;56982.66;5087808;28;20032;-78
2024/03/26 08:23:28;;;;;;;11.05;4.18;;;;;;;-144.05;52.41;56940.16;5086901;28;20036;-78
2024/03/26 08:25:55;;;;;;;7.45;3.75;;;7.30;99.90;;;-144.05;51.60;56980.53;5081361;28;20082;-78
2024/03/26 08:28:21;;;;;;;7.15;3.50;;;10.50;99.90;;;-144.05;51.78;56946.53;5067820;28;20037;-78
2024/03/26 08:30:47;;;;;;;8.02;3.63;;;8.10;99.90;;;-144.05;51.91;56974.16;5067320;28;20457;-77
2024/03/26 08:33:14;;;;;;;10.13;3.97;;;8.60;99.90;;;-144.05;51.46;56959.28;5081304;28;20504;-74
2024/03/26 08:35:41;;;;;;;7.28;2.50;;;10.70;99.90;;;-144.05;48.79;56948.66;5087979;28;20028;-77
2024/03/26 08:38:08;;;;;;;2.58;1.60;;;7.50;99.90;;;-144.05;47.25;56969.91;5085014;28;20032;-77
2024/03/26 08:40:34;;;;;;;6.97;2.85;;;11.20;99.90;;;-144.05;45.95;56942.28;5065733;28;20313;-76
2024/03/26 08:43:00;;;;;;;6.93;2.33;;;11.00;99.90;;;-144.05;45.20;56955.03;5081368;28;20039;-76
2024/03/26 08:45:26;;;;;;;3.80;1.77;;;8.80;99.90;;;-144.05;44.68;56929.53;5066192;28;20028;-79
2024/03/26 08:47:52;;;;;;;4.20;1.52;;;8.20;99.90;;;-144.05;44.32;56940.16;5063610;28;20033;-77
2024/03/26 08:50:19;;;;;;;3.85;1.48;;;;;;;-144.05;43.91;56984.78;5065639;28;20097;-74
2024/03/26 08:52:45;;;;;;;3.63;1.65;;;8.60;99.90;;;-144.05;42.77;56961.41;5078787;28;20035;-80
2024/03/26 08:55:10;;;;;;;3.75;1.70;;;9.20;99.90;;;-144.05;41.79;56967.78;5103803;28;20147;-80
2024/03/26 08:57:36;;;;;;;3.90;1.70;;;9.40;99.90;;;-144.05;41.62;56940.16;5073888;28;20403;-77
2024/03/26 09:00:04;;;;;;;3.60;1.35;;;9.00;99.90;;;-144.05;41.51;56942.28;5086656;28;20046;-75
2024/03/26 09:02:30;;;;;;;3.30;1.42;;;10.10;99.90;;;-144.05;41.22;56933.78;5089905;28;20020;-75
2024/03/26 09:04:56;;;;;;;2.42;1.20;;;;;;;-144.05;40.58;56957.16;5086075;28;20481;-78
2024/03/26 09:07:22;;;;;;;2.75;1.20;;;11.60;99.90;;;-144.05;40.96;56948.66;5087340;28;20474;-77
2024/03/26 09:09:48;;;;;;;4.40;1.70;;;9.10;99.90;;;-144.05;41.25;56942.28;5086623;28;20422;-76
2024/03/26 09:12:14;;;;;;;5.97;1.40;;;8.70;99.90;;;-144.05;40.89;56946.53;5085926;28;20036;-78
2024/03/26 09:14:40;;;;;;;4.35;1.58;;;14.40;99.90;;;-144.05;41.48;56955.03;5086846;28;20028;-77
2024/03/26 09:17:05;;;;;;;4.95;1.52;;;8.70;99.90;;;-144.05;41.47;56942.28;5085206;28;20032;-77
2024/03/26 09:19:32;;;;;;;7.22;1.60;;;14.40;99.90;;;-144.05;41.39;56967.78;5089075;28;20027;-80
2024/03/26 09:21:58;;;;;;;5.60;1.65;;;;;;;-144.05;41.77;56942.28;5061707;28;20036;-78
2024/03/26 09:24:24;;;;;;;3.05;1.20;;;8.80;99.90;;;-144.05;42.12;56959.28;5066775;28;20051;-78
2024/03/26 09:26:49;;;;;;;4.22;1.15;;;8.90;99.90;;;-144.05;41.51;56946.53;5066286;28;20485;-79
2024/03/26 09:29:15;;;;;;;3.97;1.42;;;8.60;99.90;;;-144.05;41.59;56931.66;5067031;28;20078;-77
2024/03/26 09:31:41;;;;;;;6.72;1.45;;;8.90;99.90;;;-144.05;41.62;56946.53;5085159;28;20054;-76
2024/03/26 09:34:07;;;;;;;2.90;1.40;;;;;;;-144.05;42.14;56929.53;5066530;28;20058;-78
2024/03/26 09:36:33;;;;;;;6.13;2.08;;;9.10;99.90;;;-144.05;41.58;56972.03;5083635;28;20534;-79
2024/03/26 09:38:59;;;;;;;2.65;1.55;;;8.80;99.90;;;-144.05;40.68;56972.03;5064975;28;20025;-76
2024/03/26 09:41:28;;;;;;;4.50;1.48;;;8.80;99.90;;;-144.05;41.23;56950.78;5084979;28;20056;-78
2024/03/26 09:43:55;;;;;;;2.95;1.58;;;14.50;99.90;;;-144.05;41.18;56967.78;5084258;28;20027;-77
2024/03/26 09:46:22;;;;;;;5.10;1.58;;;8.80;99.90;;;-144.05;41.90;56950.78;5085026;28;20497;-78
2024/03/26 09:48:51;;;;;;;3.35;1.30;;;;;;;-144.05;41.79;56927.41;5085583;28;20377;-78
2024/03/26 09:51:19;;;;;;;5.57;1.67;;;;;;;-144.05;41.79;56957.16;5085828;28;20021;-76
2024/03/26 09:53:46;;;;;;;3.22;1.50;;;14.10;99.90;;;-144.05;42.20;56959.28;5086199;28;20032;-78
2024/03/26 09:56:12;;;;;;;2.78;1.70;;;13.70;99.90;;;-144.05;41.84;56961.41;5083607;28;20027;-79
2024/03/26 09:58:39;;;;;;;4.65;1.38;;;;;;;-144.05;42.17;56967.78;5085950;28;20027;-77
2024/03/26 10:01:06;;;;;;;4.20;1.50;;;11.40;99.90;;;-144.05;42.81;56967.78;5064534;28;20503;-78
2024/03/26 10:03:33;;;;;;;3.42;1.67;;;8.60;99.90;;;-144.05;43.03;56935.91;5086616;28;20099;-78
2024/03/26 10:06:00;;;;;;;2.85;1.30;;;8.70;99.90;;;-144.05;44.13;56959.28;5078167;28;20020;-79
2024/03/26 10:08:27;;;;;;;3.20;1.45;;;;;;;-144.05;44.61;56989.00;5091628;28;20043;-79
2024/03/26 10:10:55;;;;;;;3.75;0.93;;;8.80;99.90;;;-144.05;45.13;56944.41;5078814;28;20169;-78
2024/03/26 10:13:22;;;;;;;3.60;1.50;;;8.00;99.90;;;-144.05;45.37;56948.66;5067018;28;20032;-80